Time;durP1;ratioP1;P1;durP2;ratioP2;P2;SDS_P1;SDS_P2;PMS_P1;PMS_P2;Temp;Humidity;BMP_temperature;BMP_pressure;BME280_temperature;BME280_humidity;BME280_pressure;Samples;Min_cycle;Max_cycle;Signal;HPM_P1;HPM_P2
2023/04/30 00:00:44;;;;;;;23.27;11.90;;;;;;;7.09;100.00;102162.31;5064911;28;20029;-70
2023/04/30 00:03:09;;;;;;;23.17;11.23;;;;;;;7.07;100.00;102158.75;5063477;28;20060;-70
2023/04/30 00:05:35;;;;;;;23.73;11.77;;;;;;;7.07;100.00;102158.75;5065961;28;20395;-69
2023/04/30 00:08:00;;;;;;;23.95;11.40;;;;;;;7.01;100.00;102155.88;5062912;28;20032;-70
2023/04/30 00:10:25;;;;;;;24.05;12.10;;;;;;;7.06;100.00;102162.19;5066005;28;20450;-70
2023/04/30 00:12:51;;;;;;;24.70;11.68;;;;;;;7.01;100.00;102158.50;5063674;28;20039;-71
2023/04/30 00:15:16;;;;;;;24.05;12.00;;;;;;;7.04;100.00;102169.13;5064023;28;20021;-70
2023/04/30 00:17:42;;;;;;;23.92;12.57;;;;;;;7.00;100.00;102161.97;5064908;28;20036;-70
2023/04/30 00:20:07;;;;;;;24.98;12.27;;;;;;;6.92;100.00;102162.53;5063016;28;20065;-70
2023/04/30 00:22:33;;;;;;;24.13;12.73;;;;;;;6.97;100.00;102158.38;5065773;28;20056;-70
2023/04/30 00:24:58;;;;;;;25.00;12.77;;;;;;;6.91;100.00;102160.75;5062154;28;20098;-71
2023/04/30 00:27:23;;;;;;;23.92;11.88;;;;;;;6.87;100.00;102160.56;5065126;28;20037;-70
2023/04/30 00:29:49;;;;;;;24.73;12.98;;;;;;;6.84;100.00;102165.69;5063242;28;20442;-71
2023/04/30 00:32:14;;;;;;;24.63;13.02;;;;;;;6.78;100.00;102163.72;5063644;28;20028;-69
2023/04/30 00:34:40;;;;;;;24.90;12.82;;;;;;;6.68;100.00;102165.06;5064775;28;20024;-69
2023/04/30 00:37:05;;;;;;;25.13;12.80;;;;;;;6.62;100.00;102165.69;5062257;28;20036;-70
2023/04/30 00:39:30;;;;;;;24.02;12.77;;;;;;;6.55;100.00;102163.69;5065577;28;20029;-69
2023/04/30 00:41:56;;;;;;;25.50;12.85;;;;;;;6.53;100.00;102160.06;5062383;28;20070;-70
2023/04/30 00:44:21;;;;;;;24.08;13.52;;;;;;;6.54;100.00;102163.59;5064192;28;20025;-70
2023/04/30 00:46:46;;;;;;;24.27;12.80;;;;;;;6.50;100.00;102167.81;5063620;28;20078;-70
2023/04/30 00:49:12;;;;;;;24.48;12.13;;;;;;;6.42;100.00;102170.13;5062504;28;20108;-70
2023/04/30 00:51:40;;;;;;;23.70;12.20;;;;;;;6.33;100.00;102174.09;5064457;28;20063;-70
2023/04/30 00:54:06;;;;;;;23.42;12.40;;;;;;;6.30;100.00;102171.34;5061950;28;20380;-70
2023/04/30 00:56:32;;;;;;;24.02;12.75;;;;;;;6.30;100.00;102163.47;5065009;28;20059;-70
2023/04/30 00:58:57;;;;;;;24.02;13.30;;;;;;;6.23;100.00;102165.84;5061868;28;20082;-70
2023/04/30 01:01:24;;;;;;;24.35;13.43;;;;;;;6.25;100.00;102166.78;5064315;28;20052;-70
2023/04/30 01:03:50;;;;;;;24.48;13.10;;;;;;;6.25;100.00;102166.78;5062778;28;20047;-70
2023/04/30 01:06:15;;;;;;;25.05;13.48;;;;;;;6.24;100.00;102167.59;5062977;28;20029;-70
2023/04/30 01:08:40;;;;;;;25.30;13.05;;;;;;;6.18;100.00;102161.22;5064138;28;20535;-70
2023/04/30 01:11:30;;;;;;;25.02;12.95;;;;;;;6.14;100.00;102157.53;5061663;28;20546;-69
2023/04/30 01:14:15;;;;;;;25.73;13.75;;;;;;;6.07;100.00;102156.38;5061626;28;20033;-70
2023/04/30 01:17:13;;;;;;;24.42;13.48;;;;;;;6.03;100.00;102156.16;5059693;28;20032;-69
2023/04/30 01:19:43;;;;;;;26.75;13.85;;;;;;;5.95;100.00;102147.94;5036375;28;20119;-70
2023/04/30 01:22:23;;;;;;;24.75;13.60;;;;;;;5.90;100.00;102157.34;5063939;28;20065;-69
2023/04/30 01:24:54;;;;;;;25.35;13.50;;;;;;;5.91;100.00;102149.53;5063126;28;20362;-69
2023/04/30 01:27:31;;;;;;;25.38;13.93;;;;;;;5.89;100.00;102161.66;5062299;28;20028;-69
2023/04/30 01:29:57;;;;;;;25.00;13.80;;;;;;;5.86;100.00;102160.66;5064005;28;20056;-73
2023/04/30 01:32:22;;;;;;;26.92;13.38;;;;;;;5.76;100.00;102152.34;5062200;28;20383;-69
2023/04/30 01:34:47;;;;;;;25.17;13.80;;;;;;;5.72;100.00;102154.78;5062712;28;20037;-69
2023/04/30 01:38:04;;;;;;;24.80;13.88;;;;;;;5.72;100.00;102160.94;5062088;28;20032;-69
2023/04/30 01:40:55;;;;;;;23.98;13.02;;;;;;;5.70;100.00;102164.31;5014915;28;20119;-69
2023/04/30 01:43:45;;;;;;;24.52;13.50;;;;;;;5.69;100.00;102159.88;5061658;28;20133;-69
2023/04/30 01:46:29;;;;;;;24.65;14.02;;;;;;;5.63;100.00;102159.63;5059196;28;20470;-69
2023/04/30 01:49:04;;;;;;;25.98;14.70;;;;;;;5.67;100.00;102158.94;5061707;28;20031;-70
2023/04/30 01:51:44;;;;;;;24.92;14.30;;;;;;;5.62;100.00;102157.81;5064171;28;20028;-69
2023/04/30 01:54:37;;;;;;;24.52;13.80;;;;;;;5.59;100.00;102166.44;5058792;28;20037;-77
2023/04/30 01:57:06;;;;;;;26.42;15.27;;;;;;;5.51;100.00;102170.44;5057151;28;20025;-72
2023/04/30 01:59:34;;;;;;;27.25;14.82;;;;;;;5.51;100.00;102171.34;5056884;28;20017;-73
2023/04/30 02:02:00;;;;;;;25.52;14.32;;;;;;;5.48;100.00;102165.94;5055942;28;20029;-75
2023/04/30 02:04:25;;;;;;;25.25;14.10;;;;;;;5.49;100.00;102159.88;5063345;28;20031;-71
2023/04/30 02:06:51;;;;;;;26.42;15.25;;;;;;;5.47;100.00;102169.38;5061809;28;20024;-76
2023/04/30 02:09:16;;;;;;;27.52;15.25;;;;;;;5.47;100.00;102173.75;5062481;28;20025;-71
2023/04/30 02:11:42;;;;;;;28.52;15.45;;;;;;;5.47;100.00;102174.63;5061819;28;20036;-74
2023/04/30 02:14:07;;;;;;;25.98;15.65;;;;;;;5.46;100.00;102170.25;5060931;28;20049;-80
2023/04/30 02:16:32;;;;;;;26.73;15.52;;;;;;;5.42;100.00;102176.16;5064164;28;20040;-70
2023/04/30 02:18:58;;;;;;;26.17;15.63;;;;;;;5.42;100.00;102170.91;5060641;28;20029;-72
2023/04/30 02:21:23;;;;;;;26.48;15.68;;;;;;;5.38;100.00;102176.84;5063052;28;20033;-70
2023/04/30 02:23:48;;;;;;;26.75;15.60;;;;;;;5.34;100.00;102178.41;5062221;28;20047;-75
2023/04/30 02:26:14;;;;;;;26.85;16.10;;;;;;;5.35;100.00;102179.31;5060324;28;20049;-73
2023/04/30 02:28:39;;;;;;;26.67;16.27;;;;;;;5.34;100.00;102173.16;5063256;28;20037;-71
2023/04/30 02:31:05;;;;;;;26.70;16.35;;;;;;;5.31;100.00;102177.38;5060336;28;20041;-70
2023/04/30 02:33:30;;;;;;;27.92;16.25;;;;;;;5.28;100.00;102177.25;5056334;28;20128;-69
2023/04/30 02:35:58;;;;;;;27.20;16.50;;;;;;;5.25;100.00;102177.97;5063199;28;20024;-69
2023/04/30 02:38:24;;;;;;;26.58;16.30;;;;;;;5.22;100.00;102173.47;5061306;28;20029;-69
2023/04/30 02:40:49;;;;;;;27.13;15.80;;;;;;;5.14;100.00;102168.69;5061034;28;20037;-70
2023/04/30 02:43:14;;;;;;;27.98;17.20;;;;;;;5.13;100.00;102165.19;5062655;28;20112;-70
2023/04/30 02:45:40;;;;;;;27.58;17.38;;;;;;;5.11;100.00;102172.09;5061085;28;20033;-70
2023/04/30 02:48:05;;;;;;;27.83;17.20;;;;;;;5.11;100.00;102173.81;5063635;28;20025;-72
2023/04/30 02:50:31;;;;;;;27.77;17.15;;;;;;;5.06;100.00;102173.59;5060290;28;20032;-70
2023/04/30 02:52:56;;;;;;;27.02;17.15;;;;;;;5.05;100.00;102174.41;5063158;28;20112;-69
2023/04/30 02:55:21;;;;;;;31.80;17.23;;;;;;;5.02;100.00;102171.63;5061344;28;20082;-69
2023/04/30 02:57:47;;;;;;;28.23;17.50;;;;;;;5.04;100.00;102172.63;5061968;28;20021;-70
2023/04/30 03:00:12;;;;;;;29.23;17.98;;;;;;;5.01;100.00;102180.31;5062620;28;20029;-71
2023/04/30 03:02:38;;;;;;;28.08;18.23;;;;;;;5.00;100.00;102181.16;5060417;28;20029;-70
2023/04/30 03:05:04;;;;;;;29.33;19.15;;;;;;;5.03;100.00;102173.44;5063752;28;20082;-70
2023/04/30 03:07:29;;;;;;;27.70;16.83;;;;;;;4.95;100.00;102167.84;5060086;28;20029;-71
2023/04/30 03:09:55;;;;;;;27.52;17.75;;;;;;;4.93;100.00;102163.34;5062739;28;20021;-81
2023/04/30 03:12:20;;;;;;;26.45;16.98;;;;;;;4.82;100.00;102168.97;5061694;28;20134;-81
2023/04/30 03:14:45;;;;;;;29.00;18.77;;;;;;;4.84;100.00;102169.03;5063679;28;20033;-77
2023/04/30 03:17:11;;;;;;;29.25;17.92;;;;;;;4.77;100.00;102162.59;5066520;28;20024;-82
2023/04/30 03:19:36;;;;;;;28.77;18.30;;;;;;;4.74;100.00;102170.31;5063800;28;20029;-82
2023/04/30 03:22:01;;;;;;;28.63;17.38;;;;;;;4.72;100.00;102167.59;5066849;28;20032;-81
2023/04/30 03:24:27;;;;;;;27.98;17.63;;;;;;;4.66;100.00;102161.16;5064148;28;20361;-81
2023/04/30 03:26:52;;;;;;;29.00;18.98;;;;;;;4.62;100.00;102167.97;5064369;28;20033;-81
2023/04/30 03:29:17;;;;;;;27.50;17.85;;;;;;;4.53;100.00;102171.03;5065121;28;20060;-82
2023/04/30 03:31:43;;;;;;;28.30;17.90;;;;;;;4.53;100.00;102173.66;5064359;28;20136;-81
2023/04/30 03:34:08;;;;;;;27.30;17.48;;;;;;;4.43;100.00;102168.78;5066269;28;20518;-81
2023/04/30 03:36:34;;;;;;;26.35;17.00;;;;;;;4.43;100.00;102165.28;5062090;28;20029;-79
2023/04/30 03:39:00;;;;;;;29.00;17.90;;;;;;;4.40;100.00;102172.94;5067013;28;20032;-82
2023/04/30 03:41:25;;;;;;;29.20;18.75;;;;;;;4.41;100.00;102169.50;5062817;28;20025;-80
2023/04/30 03:43:51;;;;;;;29.20;18.55;;;;;;;4.41;100.00;102165.16;5065217;28;20055;-79
2023/04/30 03:46:17;;;;;;;28.33;18.48;;;;;;;4.38;100.00;102167.63;5065248;28;20115;-81
2023/04/30 03:48:42;;;;;;;27.13;17.83;;;;;;;4.34;100.00;102168.31;5063962;28;20033;-82
2023/04/30 03:51:08;;;;;;;27.58;17.88;;;;;;;4.38;100.00;102172.88;5066265;28;20023;-81
2023/04/30 03:53:33;;;;;;;28.83;18.30;;;;;;;4.31;100.00;102176.00;5062991;28;20436;-82
2023/04/30 03:55:59;;;;;;;28.55;18.67;;;;;;;4.29;100.00;102175.91;5066117;28;20036;-80
2023/04/30 03:58:24;;;;;;;31.05;19.50;;;;;;;4.27;100.00;102179.28;5063816;28;20052;-69
2023/04/30 04:00:50;;;;;;;29.83;19.65;;;;;;;4.18;100.00;102187.56;5064764;28;20163;-69
2023/04/30 04:03:15;;;;;;;28.23;18.50;;;;;;;4.18;100.00;102183.22;5064925;28;20028;-74
2023/04/30 04:05:41;;;;;;;28.55;18.73;;;;;;;4.16;100.00;102186.56;5063401;28;20041;-75
2023/04/30 04:08:06;;;;;;;29.02;19.25;;;;;;;4.18;100.00;102183.22;5066079;28;20021;-73
2023/04/30 04:10:35;;;;;;;30.73;19.85;;;;;;;4.26;100.00;102194.09;5062610;28;20044;-75
2023/04/30 04:13:01;;;;;;;29.38;20.15;;;;;;;4.33;100.00;102187.47;5066135;28;20476;-70
2023/04/30 04:15:26;;;;;;;30.65;21.17;;;;;;;4.33;100.00;102190.97;5063017;28;20104;-73
2023/04/30 04:17:51;;;;;;;30.52;21.42;;;;;;;4.38;100.00;102192.91;5064572;28;20473;-70
2023/04/30 04:20:17;;;;;;;30.75;20.65;;;;;;;4.32;100.00;102196.13;5064585;28;20574;-69
2023/04/30 04:22:43;;;;;;;29.73;20.35;;;;;;;4.35;100.00;102189.34;5063221;28;20029;-78
2023/04/30 04:25:09;;;;;;;29.63;19.55;;;;;;;4.34;100.00;102191.88;5064289;28;20074;-73
2023/04/30 04:27:35;;;;;;;29.10;19.80;;;;;;;4.35;100.00;102198.91;5062597;28;20451;-75
2023/04/30 04:30:02;;;;;;;30.95;21.58;;;;;;;4.39;100.00;102197.34;5065321;28;20029;-79
2023/04/30 04:32:29;;;;;;;30.67;21.67;;;;;;;4.42;100.00;102198.38;5062794;28;20028;-73
2023/04/30 04:34:55;;;;;;;30.85;22.13;;;;;;;4.43;100.00;102197.56;5064736;28;20079;-70
2023/04/30 04:37:21;;;;;;;31.95;22.08;;;;;;;4.42;100.00;102200.13;5063428;28;20028;-69
2023/04/30 04:39:47;;;;;;;30.98;21.67;;;;;;;4.45;100.00;102201.16;5063209;28;20037;-72
2023/04/30 04:42:14;;;;;;;33.08;22.85;;;;;;;4.48;100.00;102201.31;5064783;28;20031;-69
2023/04/30 04:44:40;;;;;;;29.98;21.42;;;;;;;4.48;100.00;102201.31;5062248;28;20048;-70
2023/04/30 04:47:05;;;;;;;33.03;22.80;;;;;;;4.52;100.00;102203.28;5065605;28;20029;-70
2023/04/30 04:49:30;;;;;;;32.38;22.95;;;;;;;4.56;100.00;102211.28;5060757;28;20068;-69
2023/04/30 04:51:56;;;;;;;32.33;22.85;;;;;;;4.61;100.00;102207.19;5064677;28;20025;-70
2023/04/30 04:54:21;;;;;;;32.38;23.42;;;;;;;4.67;100.00;102212.72;5063111;28;20044;-73
2023/04/30 04:56:47;;;;;;;32.35;23.05;;;;;;;4.68;100.00;102209.31;5063449;28;20032;-69
2023/04/30 04:59:12;;;;;;;32.33;23.20;;;;;;;4.73;100.00;102210.41;5064231;28;20570;-69
2023/04/30 05:01:38;;;;;;;33.33;23.23;;;;;;;4.69;100.00;102216.34;5061990;28;20384;-70
2023/04/30 05:04:03;;;;;;;34.83;24.70;;;;;;;4.83;100.00;102212.66;5065012;28;20029;-69
2023/04/30 05:06:29;;;;;;;32.55;24.38;;;;;;;4.86;100.00;102215.47;5061813;28;20396;-70
2023/04/30 05:08:54;;;;;;;34.47;24.30;;;;;;;4.96;100.00;102215.91;5064057;28;20040;-69
2023/04/30 05:11:21;;;;;;;33.30;24.92;;;;;;;5.03;100.00;102215.38;5062968;28;20032;-70
2023/04/30 05:13:46;;;;;;;33.35;25.17;;;;;;;5.09;100.00;102222.66;5062565;28;20104;-70
2023/04/30 05:16:12;;;;;;;34.35;25.58;;;;;;;5.15;100.00;102213.34;5064240;28;20036;-69
2023/04/30 05:18:37;;;;;;;34.38;25.00;;;;;;;5.21;100.00;102211.03;5061380;28;20025;-70
2023/04/30 05:21:03;;;;;;;34.72;25.42;;;;;;;5.28;100.00;102214.84;5064757;28;20410;-70
2023/04/30 05:23:28;;;;;;;34.88;25.73;;;;;;;5.31;100.00;102208.84;5061909;28;20040;-70
2023/04/30 05:25:54;;;;;;;34.63;26.83;;;;;;;5.36;100.00;102207.34;5063364;28;20033;-70
2023/04/30 05:28:19;;;;;;;34.88;26.90;;;;;;;5.41;100.00;102211.97;5062718;28;20024;-70
2023/04/30 05:30:45;;;;;;;33.67;26.23;;;;;;;5.47;100.00;102205.22;5061044;28;20127;-69
2023/04/30 05:33:10;;;;;;;34.80;27.30;;;;;;;5.47;100.00;102210.47;5064007;28;21092;-70
2023/04/30 05:35:36;;;;;;;35.58;27.83;;;;;;;5.57;100.00;102213.59;5059841;28;20065;-69
2023/04/30 05:38:02;;;;;;;35.55;28.55;;;;;;;5.65;100.00;102210.41;5064457;28;20021;-69
2023/04/30 05:40:28;;;;;;;36.40;28.83;;;;;;;5.72;100.00;102208.16;5061642;28;20104;-69
2023/04/30 05:42:53;;;;;;;36.10;28.38;;;;;;;5.77;100.00;102216.25;5063339;28;20031;-77
2023/04/30 05:45:19;;;;;;;33.63;26.75;;;;;;;5.80;100.00;102211.13;5062602;28;20037;-73
2023/04/30 05:47:44;;;;;;;33.35;26.38;;;;;;;5.84;100.00;102212.16;5061889;28;20072;-76
2023/04/30 05:50:10;;;;;;;34.63;26.17;;;;;;;5.92;100.00;102201.19;5064095;28;20028;-74
2023/04/30 05:52:35;;;;;;;34.85;25.83;;;;;;;6.07;100.00;102208.91;5060860;28;20123;-73
2023/04/30 05:55:00;;;;;;;32.55;25.17;;;;;;;6.10;100.00;102211.66;5063976;28;20044;-74
2023/04/30 05:57:26;;;;;;;31.27;24.30;;;;;;;6.17;100.00;102210.19;5061660;28;20082;-75
2023/04/30 05:59:52;;;;;;;31.10;23.48;;;;;;;6.28;100.00;102208.03;5062603;28;20029;-79
2023/04/30 06:02:17;;;;;;;30.95;22.58;;;;;;;6.35;100.00;102211.81;5062632;28;20032;-72
2023/04/30 06:04:43;;;;;;;29.73;20.95;;;;;;;6.37;100.00;102200.56;5061517;28;20543;-79
2023/04/30 06:07:08;;;;;;;31.27;20.25;;;;;;;6.49;100.00;102209.81;5064002;28;20025;-72
2023/04/30 06:09:33;;;;;;;29.42;20.50;;;;;;;6.61;100.00;102210.31;5060596;28;20044;-77
2023/04/30 06:11:59;;;;;;;29.58;19.67;;;;;;;6.67;100.00;102209.66;5063810;28;20035;-78
2023/04/30 06:14:25;;;;;;;27.27;18.50;;;;;;;6.71;100.00;102206.34;5061646;28;20379;-82
2023/04/30 06:16:50;;;;;;;27.00;18.27;;;;;;;6.77;100.00;102201.34;5053794;28;20032;-80
2023/04/30 06:19:15;;;;;;;27.63;18.25;;;;;;;6.82;100.00;102202.44;5061180;28;20031;-74
2023/04/30 06:21:42;;;;;;;27.23;17.73;;;;;;;6.88;100.00;102199.16;5064368;28;20112;-74
2023/04/30 06:24:08;;;;;;;26.25;17.65;;;;;;;7.00;100.00;102196.13;5064773;28;20029;-77
2023/04/30 06:26:33;;;;;;;28.00;18.95;;;;;;;7.06;100.00;102199.00;5065636;28;20040;-77
2023/04/30 06:28:59;;;;;;;26.05;17.50;;;;;;;7.18;100.00;102203.84;5062733;28;20114;-74
2023/04/30 06:31:25;;;;;;;27.10;17.45;;;;;;;7.21;100.00;102196.09;5062050;28;20053;-72
2023/04/30 06:33:51;;;;;;;27.15;17.83;;;;;;;7.27;100.00;102199.88;5062950;28;20035;-75
2023/04/30 06:36:17;;;;;;;27.27;17.75;;;;;;;7.36;100.00;102196.72;5061205;28;20098;-81
2023/04/30 06:38:43;;;;;;;26.58;17.58;;;;;;;7.44;100.00;102192.66;5065350;28;20070;-78
2023/04/30 06:41:08;;;;;;;26.77;17.15;;;;;;;7.56;100.00;102194.84;5062151;28;20483;-79
2023/04/30 06:43:34;;;;;;;28.48;17.35;;;;;;;7.64;100.00;102200.41;5062959;28;20028;-78
2023/04/30 06:45:59;;;;;;;26.25;16.45;;;;;;;7.73;100.00;102194.59;5057460;28;20036;-77
2023/04/30 06:48:25;;;;;;;27.08;16.42;;;;;;;7.81;100.00;102201.03;5062605;28;20492;-78
2023/04/30 06:50:50;;;;;;;25.60;16.30;;;;;;;7.86;100.00;102194.19;5066955;28;20120;-78
2023/04/30 06:53:15;;;;;;;25.75;16.02;;;;;;;7.97;100.00;102191.97;5063427;28;20027;-73
2023/04/30 06:55:41;;;;;;;25.40;15.27;;;;;;;8.05;100.00;102193.13;5065384;28;20037;-79
2023/04/30 06:58:07;;;;;;;25.38;14.10;;;;;;;8.13;100.00;102190.78;5067378;28;20024;-76
2023/04/30 07:00:33;;;;;;;26.08;14.77;;;;;;;8.22;100.00;102204.28;5066590;28;20380;-79
2023/04/30 07:03:03;;;;;;;25.58;15.02;;;;;;;8.28;100.00;102207.13;5063232;28;20099;-78
2023/04/30 07:05:31;;;;;;;25.15;15.68;;;;;;;8.33;100.00;102208.19;5067079;28;20052;-82
2023/04/30 07:08:00;;;;;;;25.77;16.35;;;;;;;8.50;100.00;102214.09;5067240;28;20047;-80
2023/04/30 07:10:25;;;;;;;25.90;15.90;;;;;;;8.52;100.00;102212.41;5066263;28;20139;-81
2023/04/30 07:12:51;;;;;;;26.80;15.77;;;;;;;8.57;100.00;102214.31;5066332;28;20484;-81
2023/04/30 07:15:16;;;;;;;26.58;15.88;;;;;;;8.71;100.00;102205.13;5069092;28;20472;-82
2023/04/30 07:17:41;;;;;;;25.45;15.73;;;;;;;8.77;100.00;102215.00;5065434;28;20434;-73
2023/04/30 07:20:08;;;;;;;25.02;15.23;;;;;;;8.77;100.00;102207.09;5067554;28;20055;-79
2023/04/30 07:22:33;;;;;;;25.40;14.68;;;;;;;8.80;100.00;102202.78;5067680;28;20040;-79
2023/04/30 07:24:59;;;;;;;26.35;16.00;;;;;;;8.90;100.00;102207.53;5069269;28;20032;-77
2023/04/30 07:27:25;;;;;;;25.55;15.80;;;;;;;8.96;100.00;102201.56;5061993;28;20086;-83
2023/04/30 07:29:51;;;;;;;27.15;15.30;;;;;;;9.02;100.00;102193.84;5064866;28;20036;-79
2023/04/30 07:32:16;;;;;;;24.90;14.68;;;;;;;9.07;100.00;102194.88;5063527;28;20021;-77
2023/04/30 07:34:41;;;;;;;25.33;15.65;;;;;;;9.18;100.00;102194.34;5068638;28;20033;-80
2023/04/30 07:37:08;;;;;;;25.77;15.18;;;;;;;9.24;100.00;102191.88;5060692;28;20051;-77
2023/04/30 07:39:35;;;;;;;26.10;15.23;;;;;;;9.36;100.00;102196.63;5065427;28;20086;-79
2023/04/30 07:42:01;;;;;;;25.90;15.10;;;;;;;9.45;100.00;102182.81;5068652;28;20035;-77
2023/04/30 07:44:27;;;;;;;26.10;14.70;;;;;;;9.50;100.00;102191.78;5065185;28;20037;-80
2023/04/30 07:46:52;;;;;;;25.40;15.60;;;;;;;9.60;100.00;102178.03;5063923;28;20054;-79
2023/04/30 07:49:18;;;;;;;24.25;14.57;;;;;;;9.70;100.00;102188.00;5066428;28;20116;-80
2023/04/30 07:51:43;;;;;;;25.00;14.93;;;;;;;9.84;100.00;102188.38;5065466;28;20031;-69
2023/04/30 07:54:08;;;;;;;25.08;14.30;;;;;;;9.88;100.00;102190.25;5062210;28;20056;-76
2023/04/30 07:56:34;;;;;;;24.42;14.65;;;;;;;10.00;100.00;102189.72;5064232;28;20409;-78
2023/04/30 07:59:00;;;;;;;24.58;14.43;;;;;;;10.14;100.00;102186.59;5065416;28;20037;-80
2023/04/30 08:01:25;;;;;;;25.33;14.90;;;;;;;10.28;100.00;102182.53;5065957;28;20047;-75
2023/04/30 08:03:51;;;;;;;24.65;14.45;;;;;;;10.40;100.00;102180.28;5066254;28;20033;-71
2023/04/30 08:06:16;;;;;;;24.23;13.85;;;;;;;10.45;100.00;102191.84;5064355;28;20088;-73
2023/04/30 08:08:41;;;;;;;26.60;13.95;;;;;;;10.59;100.00;102188.69;5065663;28;20029;-78
2023/04/30 08:11:07;;;;;;;24.15;13.93;;;;;;;10.70;100.00;102197.78;5064746;28;20064;-80
2023/04/30 08:13:32;;;;;;;24.67;13.40;;;;;;;11.05;100.00;102196.84;5063896;28;20094;-74
2023/04/30 08:15:57;;;;;;;24.02;13.23;;;;;;;11.87;100.00;102194.28;5065911;28;20032;-74
2023/04/30 08:18:23;;;;;;;22.65;12.38;;;;;;;12.80;100.00;102198.63;5061497;28;20040;-77
2023/04/30 08:20:48;;;;;;;21.88;11.73;;;;;;;13.55;100.00;102197.16;5054087;28;20057;-72
2023/04/30 08:23:15;;;;;;;21.52;11.23;;;;;;;14.10;100.00;102196.06;5065393;28;20021;-72
2023/04/30 08:25:41;;;;;;;21.88;11.30;;;;;;;14.71;100.00;102192.25;5063315;28;20402;-73
2023/04/30 08:28:06;;;;;;;21.90;11.40;;;;;;;15.30;100.00;102191.81;5062902;28;20108;-70
2023/04/30 08:30:31;;;;;;;21.13;11.10;;;;;;;15.79;92.47;102192.97;5064647;28;20076;-71
2023/04/30 08:32:57;;;;;;;21.63;10.73;;;;;;;16.23;84.74;102194.00;5062513;28;20079;-72
2023/04/30 08:35:22;;;;;;;21.75;10.38;;;;;;;16.45;77.75;102201.13;5065636;28;20472;-72
2023/04/30 08:37:48;;;;;;;21.63;9.98;;;;;;;16.52;75.49;102202.94;5062386;28;20059;-73
2023/04/30 08:40:15;;;;;;;21.02;9.85;;;;;;;16.57;73.05;102192.25;5065070;28;20613;-71
2023/04/30 08:42:45;;;;;;;22.02;10.60;;;;;;;16.66;71.96;102189.59;5063174;28;20028;-72
2023/04/30 08:45:11;;;;;;;20.42;9.20;;;;;;;17.14;70.40;102194.03;5064352;28;20029;-72
2023/04/30 08:47:37;;;;;;;20.48;8.45;;;;;;;17.42;63.97;102184.19;5095915;28;20028;-80
2023/04/30 08:50:04;;;;;;;20.80;8.90;;;;;;;17.51;62.45;102188.63;5063464;28;20122;-81
2023/04/30 08:52:33;;;;;;;20.20;9.35;;;;;;;17.76;61.53;102187.63;5064458;28;20071;-79
2023/04/30 08:55:00;;;;;;;20.02;9.10;;;;;;;17.95;60.54;102184.91;5062312;28;20072;-74
2023/04/30 08:57:26;;;;;;;20.40;8.55;;;;;;;18.32;59.69;102183.78;5065265;28;20418;-72
2023/04/30 08:59:53;;;;;;;19.83;9.05;;;;;;;18.61;56.99;102188.91;5062410;28;20384;-77
2023/04/30 09:02:18;;;;;;;19.50;8.27;;;;;;;19.06;56.64;102188.56;5065272;28;20456;-70
2023/04/30 09:04:45;;;;;;;20.13;9.27;;;;;;;19.28;56.34;102190.13;5062116;28;20120;-79
2023/04/30 09:07:13;;;;;;;19.45;9.02;;;;;;;19.14;55.58;102195.63;5063812;28;20483;-70
2023/04/30 09:09:39;;;;;;;20.15;9.07;;;;;;;18.37;55.93;102184.66;5062984;28;20073;-71
2023/04/30 09:12:12;;;;;;;20.10;8.95;;;;;;;17.57;61.37;102176.09;5062181;28;20476;-70
2023/04/30 09:14:39;;;;;;;20.88;10.13;;;;;;;17.41;63.72;102177.94;5062787;28;20029;-70
2023/04/30 09:17:04;;;;;;;21.10;10.30;;;;;;;17.85;60.99;102177.78;5062395;28;20035;-70
2023/04/30 09:19:30;;;;;;;20.73;10.20;;;;;;;19.01;59.54;102185.94;5064114;28;20091;-73
2023/04/30 09:21:56;;;;;;;19.90;9.82;;;;;;;19.54;55.92;102182.69;5062026;28;20029;-78
2023/04/30 09:24:22;;;;;;;20.67;9.98;;;;;;;19.98;52.94;102175.88;5064644;28;20108;-73
2023/04/30 09:26:49;;;;;;;20.45;9.50;;;;;;;20.14;52.18;102182.81;5061591;28;20069;-76
2023/04/30 09:29:14;;;;;;;19.77;9.23;;;;;;;20.76;51.52;102179.19;5063043;28;20552;-74
2023/04/30 09:31:45;;;;;;;20.63;9.25;;;;;;;21.17;48.69;102176.66;5062340;28;20131;-74
2023/04/30 09:34:11;;;;;;;19.00;8.40;;;;;;;22.05;47.37;102182.97;5062248;28;20025;-72
2023/04/30 09:36:37;;;;;;;19.60;8.73;;;;;;;22.14;46.71;102171.97;5060032;28;20377;-75
2023/04/30 09:39:12;;;;;;;19.55;8.73;;;;;;;22.29;46.63;102177.00;5060338;28;20493;-75
2023/04/30 09:41:38;;;;;;;19.50;8.43;;;;;;;22.88;44.08;102175.56;5064139;28;20032;-77
2023/04/30 09:44:04;;;;;;;18.73;7.88;;;;;;;22.54;43.32;102176.44;5061640;28;20380;-72
2023/04/30 09:46:31;;;;;;;18.23;7.50;;;;;;;22.71;44.13;102180.53;5062750;28;20033;-69
2023/04/30 09:49:01;;;;;;;19.10;7.78;;;;;;;23.46;43.46;102183.00;5062379;28;20032;-70
2023/04/30 09:51:27;;;;;;;18.88;8.13;;;;;;;22.63;42.87;102169.94;5062486;28;20570;-69
2023/04/30 09:53:53;;;;;;;19.52;8.00;;;;;;;22.19;44.25;102175.47;5063319;28;20074;-70
2023/04/30 09:56:22;;;;;;;18.95;7.97;;;;;;;22.58;44.09;102170.03;5061453;28;20025;-70
2023/04/30 09:58:51;;;;;;;17.30;6.68;;;;;;;23.21;41.04;102166.63;5063479;28;20028;-71
2023/04/30 10:01:17;;;;;;;18.15;7.07;;;;;;;23.52;41.45;102169.34;5061190;28;20507;-70
2023/04/30 10:03:42;;;;;;;17.88;7.18;;;;;;;24.05;39.64;102170.50;5064130;28;20037;-69
2023/04/30 10:06:12;;;;;;;17.92;7.10;;;;;;;24.50;39.55;102178.06;5060684;28;20032;-70
2023/04/30 10:08:43;;;;;;;17.55;6.20;;;;;;;24.57;39.27;102174.22;5064023;28;20031;-69
2023/04/30 10:11:15;;;;;;;17.20;6.00;;;;;;;23.97;38.36;102168.03;5093118;28;20441;-70
2023/04/30 10:14:02;;;;;;;19.42;8.00;;;;;;;22.86;42.81;102163.06;5056519;28;20079;-72
2023/04/30 10:16:43;;;;;;;18.80;7.30;;;;;;;23.53;40.77;102157.63;5093394;28;20033;-69
2023/04/30 10:19:17;;;;;;;18.38;7.30;;;;;;;24.49;39.49;102157.38;5060851;28;20052;-69
2023/04/30 10:21:44;;;;;;;17.92;6.97;;;;;;;25.43;37.90;102150.53;5064307;28;20060;-70
2023/04/30 10:24:12;;;;;;;17.23;6.72;;;;;;;26.08;35.97;102152.50;5059686;28;20029;-69
2023/04/30 10:26:40;;;;;;;18.50;7.40;;;;;;;26.88;34.78;102147.38;5064524;28;20037;-71
2023/04/30 10:29:06;;;;;;;18.85;8.00;;;;;;;26.85;34.23;102142.09;5067420;28;20103;-70
2023/04/30 10:31:32;;;;;;;17.92;7.32;;;;;;;26.08;34.70;102138.06;5065618;28;20053;-71
2023/04/30 10:34:28;;;;;;;17.38;7.43;;;;;;;26.76;36.74;102138.84;5066449;28;20106;-70
2023/04/30 10:36:59;;;;;;;17.80;7.57;;;;;;;26.60;34.70;102133.16;5063635;28;20078;-70
2023/04/30 10:39:28;;;;;;;18.27;7.30;;;;;;;27.12;34.73;102137.28;5066345;28;20388;-70
2023/04/30 10:42:05;;;;;;;17.80;7.13;;;;;;;27.17;33.92;102131.66;5065702;28;20054;-71
2023/04/30 10:44:35;;;;;;;17.73;7.00;;;;;;;26.98;34.06;102127.03;5065622;28;20040;-69
2023/04/30 10:47:02;;;;;;;18.20;7.10;;;;;;;27.16;33.97;102124.44;5066674;28;20086;-70
2023/04/30 10:49:28;;;;;;;17.38;6.78;;;;;;;27.67;33.24;102128.44;5065649;28;20475;-70
2023/04/30 10:51:55;;;;;;;19.05;7.32;;;;;;;27.67;32.02;102120.31;5065399;28;20039;-70
2023/04/30 10:54:26;;;;;;;17.52;7.00;;;;;;;27.36;33.32;102121.72;5066887;28;20029;-70
2023/04/30 10:56:52;;;;;;;19.20;7.15;;;;;;;27.95;33.17;102119.81;5065148;28;20036;-70
2023/04/30 10:59:18;;;;;;;18.20;7.18;;;;;;;28.90;31.55;102106.94;5066908;28;20025;-70
2023/04/30 11:01:58;;;;;;;18.60;7.30;;;;;;;29.50;31.17;102107.28;5064231;28;20036;-70
2023/04/30 11:04:24;;;;;;;17.75;6.97;;;;;;;29.60;31.17;102099.47;5063142;28;20025;-71
2023/04/30 11:06:54;;;;;;;18.13;7.10;;;;;;;29.75;30.42;102097.72;5066713;28;20111;-70
2023/04/30 11:09:46;;;;;;;17.10;6.93;;;;;;;29.67;31.13;102094.56;5064512;28;20384;-71